| time (UTC) | temp F | wind direction | speed MPH | gust MPH | rain 1hr in | rain 24hr in | rain mn in | humidity % | barometer mb |
| 20260506154558 | 63 | 0 | 0.0 | 1.0 | 0.00 | 0.00 | 0.00 | 74 | 1020.6 |
| 20260506153058 | 61 | 0 | 0.0 | 2.0 | 0.00 | 0.00 | 0.00 | 76 | 1020.6 |
| 20260506151555 | 59 | 0 | 0.0 | 2.0 | 0.00 | 0.00 | 0.00 | 79 | 1020.5 |
| 20260506150055 | 57 | 0 | 0.0 | 2.0 | 0.00 | 0.00 | 0.00 | 83 | 1020.6 |
| 20260506144552 | 56 | 0 | 0.0 | 2.0 | 0.00 | 0.00 | 0.00 | 85 | 1020.5 |
| 20260506143053 | 55 | 0 | 0.0 | 2.0 | 0.00 | 0.00 | 0.00 | 87 | 1020.4 |
| 20260506141554 | 55 | 0 | 0.0 | 1.0 | 0.00 | 0.00 | 0.00 | 87 | 1020.1 |
| 20260506140053 | 55 | 0 | 0.0 | 0.0 | 0.00 | 0.00 | 0.00 | 87 | 1020.1 |
| 20260506134557 | 54 | 0 | 0.0 | 0.0 | 0.00 | 0.00 | 0.00 | 87 | 1020.1 |
| 20260506133056 | 54 | 0 | 0.0 | 0.0 | 0.00 | 0.00 | 0.00 | 87 | 1020.0 |
| 20260506131551 | 55 | 0 | 0.0 | 0.0 | 0.00 | 0.00 | 0.00 | 87 | 1019.8 |
| 20260506130056 | 55 | 0 | 0.0 | 0.0 | 0.00 | 0.00 | 0.00 | 87 | 1019.7 |
| 20260506124555 | 55 | 0 | 0.0 | 0.0 | 0.00 | 0.00 | 0.00 | 86 | 1019.8 |
| 20260506123107 | 55 | 0 | 0.0 | 1.0 | 0.00 | 0.00 | 0.00 | 86 | 1019.6 |
| 20260506121608 | 55 | 0 | 0.0 | 0.0 | 0.00 | 0.00 | 0.00 | 86 | 1019.7 |
| 20260506120059 | 55 | 217 | 0.0 | 2.0 | 0.00 | 0.00 | 0.00 | 86 | 1019.6 |
| 20260506114552 | 55 | 0 | 0.0 | 1.0 | 0.00 | 0.00 | 0.00 | 85 | 1019.6 |
| 20260506113056 | 55 | 0 | 0.0 | 0.0 | 0.00 | 0.00 | 0.00 | 85 | 1019.3 |
| 20260506111552 | 55 | 0 | 0.0 | 0.0 | 0.00 | 0.00 | 0.00 | 84 | 1019.2 |
| 20260506104557 | 55 | 0 | 0.0 | 2.0 | 0.00 | 0.00 | 0.00 | 84 | 1019.1 |
| 20260506103056 | 55 | 0 | 0.0 | 3.0 | 0.00 | 0.00 | 0.00 | 83 | 1019.1 |
| 20260506101608 | 55 | 0 | 0.0 | 1.0 | 0.00 | 0.00 | 0.00 | 83 | 1018.9 |
| 20260506100053 | 55 | 0 | 0.0 | 2.0 | 0.00 | 0.00 | 0.00 | 83 | 1019.0 |
| 20260506094559 | 55 | 0 | 0.0 | 4.0 | 0.00 | 0.01 | 0.00 | 83 | 1019.0 |
| 20260506093058 | 55 | 0 | 1.0 | 3.0 | 0.00 | 0.01 | 0.00 | 83 | 1018.9 |
| 20260506091556 | 55 | 230 | 1.0 | 3.0 | 0.00 | 0.01 | 0.00 | 83 | 1019.1 |
| 20260506090107 | 55 | 0 | 0.0 | 3.0 | 0.00 | 0.01 | 0.00 | 83 | 1019.0 |
| 20260506084616 | 56 | 255 | 0.0 | 2.0 | 0.00 | 0.02 | 0.00 | 83 | 1019.1 |
| 20260506083053 | 56 | 0 | 1.0 | 4.0 | 0.00 | 0.02 | 0.00 | 82 | 1019.0 |
| 20260506081603 | 56 | 0 | 0.0 | 1.0 | 0.00 | 0.02 | 0.00 | 83 | 1019.0 |
| 20260506073054 | 56 | 229 | 0.0 | 3.0 | 0.00 | 0.08 | 0.00 | 81 | 1018.6 |
| 20260506071556 | 56 | 0 | 0.0 | 3.0 | 0.00 | 0.08 | 0.00 | 81 | 1018.5 |
| 20260506061552 | 56 | 0 | 0.0 | 2.0 | 0.00 | 0.15 | 0.08 | 80 | 1018.1 |
| 20260506050113 | 57 | 0 | 0.0 | 2.0 | 0.00 | 0.23 | 0.08 | 79 | 1017.5 |
| 20260506044551 | 57 | 0 | 0.0 | 3.0 | 0.00 | 0.33 | 0.08 | 78 | 1017.2 |
| 20260506043050 | 57 | 227 | 0.0 | 2.0 | 0.00 | 0.33 | 0.08 | 78 | 1017.0 |
| 20260506041601 | 57 | 0 | 0.0 | 2.0 | 0.00 | 0.33 | 0.08 | 78 | 1016.9 |
| 20260506040057 | 57 | 0 | 0.0 | 2.0 | 0.00 | 0.33 | 0.08 | 78 | 1016.7 |
| 20260506034601 | 57 | 0 | 1.0 | 3.0 | 0.00 | 0.40 | 0.08 | 77 | 1016.7 |
| 20260506033053 | 57 | 0 | 1.0 | 4.0 | 0.00 | 0.40 | 0.08 | 78 | 1016.4 |
| 20260506031555 | 57 | 254 | 1.0 | 5.0 | 0.00 | 0.40 | 0.08 | 77 | 1016.3 |
| 20260506030059 | 58 | 0 | 1.0 | 4.0 | 0.00 | 0.40 | 0.08 | 77 | 1016.0 |
| 20260506024608 | 58 | 339 | 0.0 | 4.0 | 0.00 | 0.48 | 0.08 | 77 | 1015.9 |
| 20260506023111 | 58 | 329 | 2.0 | 9.0 | 0.00 | 0.48 | 0.08 | 76 | 1015.9 |
| 20260506021554 | 59 | 0 | 2.0 | 9.0 | 0.00 | 0.48 | 0.08 | 76 | 1015.7 |
| 20260506020056 | 59 | 238 | 2.0 | 8.0 | 0.00 | 0.48 | 0.08 | 75 | 1015.5 |
| 20260506014555 | 60 | 266 | 2.0 | 8.0 | 0.00 | 0.50 | 0.08 | 75 | 1015.4 |
| 20260506013056 | 60 | 252 | 2.0 | 8.0 | 0.00 | 0.50 | 0.08 | 74 | 1015.3 |
| 20260506011552 | 61 | 284 | 2.0 | 8.0 | 0.00 | 0.50 | 0.08 | 74 | 1015.3 |
| 20260506010055 | 61 | 190 | 1.0 | 8.0 | 0.00 | 0.50 | 0.08 | 74 | 1015.1 |
| 20260506004600 | 61 | 192 | 2.0 | 10.0 | 0.00 | 0.54 | 0.08 | 74 | 1015.2 |
| 20260506003053 | 61 | 218 | 1.0 | 8.0 | 0.00 | 0.54 | 0.08 | 75 | 1015.0 |
| 20260506001556 | 61 | 221 | 2.0 | 7.0 | 0.00 | 0.54 | 0.08 | 74 | 1014.9 |
| 20260506000105 | 62 | 200 | 2.0 | 10.0 | 0.00 | 0.54 | 0.08 | 74 | 1014.9 |
| 20260505234558 | 62 | 360 | 0.0 | 8.0 | 0.00 | 0.57 | 0.08 | 73 | 1014.8 |
| 20260505233056 | 63 | 360 | 1.0 | 9.0 | 0.00 | 0.57 | 0.08 | 72 | 1014.8 |
| 20260505231558 | 65 | 360 | 1.0 | 9.0 | 0.00 | 0.57 | 0.08 | 71 | 1014.7 |
| 20260505230122 | 65 | 360 | 1.0 | 8.0 | 0.00 | 0.57 | 0.08 | 72 | 1014.7 |
| 20260505224555 | 64 | 0 | 1.0 | 8.0 | 0.00 | 0.58 | 0.08 | 72 | 1014.7 |
| 20260505223054 | 64 | 360 | 1.0 | 8.0 | 0.00 | 0.58 | 0.08 | 72 | 1014.8 |
| 20260505221603 | 64 | 360 | 0.0 | 5.0 | 0.00 | 0.58 | 0.08 | 73 | 1014.9 |
| 20260505214609 | 64 | 360 | 2.0 | 8.0 | 0.00 | 0.58 | 0.08 | 73 | 1015.1 |
| 20260505213100 | 64 | 360 | 2.0 | 6.0 | 0.00 | 0.58 | 0.08 | 73 | 1015.1 |
| 20260505211559 | 65 | 360 | 1.0 | 10.0 | 0.00 | 0.58 | 0.08 | 72 | 1015.2 |
| 20260505210056 | 65 | 360 | 1.0 | 9.0 | 0.00 | 0.58 | 0.08 | 71 | 1015.1 |
| 20260505204603 | 64 | 360 | 3.0 | 10.0 | 0.00 | 0.58 | 0.08 | 73 | 1015.3 |
| 20260505203102 | 63 | 360 | 1.0 | 5.0 | 0.00 | 0.58 | 0.08 | 75 | 1015.3 |
| 20260505201555 | 63 | 360 | 2.0 | 10.0 | 0.00 | 0.58 | 0.08 | 74 | 1015.3 |
| 20260505200107 | 62 | 360 | 3.0 | 6.0 | 0.00 | 0.58 | 0.08 | 76 | 1015.3 |
| 20260505194554 | 62 | 360 | 1.0 | 8.0 | 0.00 | 0.58 | 0.08 | 76 | 1015.5 |
| 20260505193103 | 63 | 309 | 0.0 | 4.0 | 0.00 | 0.58 | 0.08 | 74 | 1015.4 |
| 20260505191607 | 62 | 0 | 0.0 | 5.0 | 0.00 | 0.58 | 0.08 | 75 | 1015.4 |
| 20260505190054 | 62 | 0 | 1.0 | 4.0 | 0.00 | 0.58 | 0.08 | 74 | 1015.4 |
| 20260505184559 | 62 | 297 | 2.0 | 7.0 | 0.00 | 0.58 | 0.08 | 75 | 1015.3 |
| 20260505183100 | 61 | 360 | 0.0 | 8.0 | 0.00 | 0.58 | 0.08 | 78 | 1015.5 |
| 20260505181559 | 61 | 317 | 0.0 | 4.0 | 0.00 | 0.58 | 0.08 | 78 | 1015.6 |
| 20260505174607 | 58 | 292 | 1.0 | 5.0 | 0.00 | 0.58 | 0.08 | 82 | 1015.5 |
| 20260505173056 | 57 | 271 | 1.0 | 3.0 | 0.00 | 0.58 | 0.08 | 86 | 1015.4 |
| 20260505171556 | 56 | 0 | 1.0 | 4.0 | 0.00 | 0.58 | 0.08 | 90 | 1015.3 |
| 20260505170055 | 55 | 360 | 1.0 | 4.0 | 0.00 | 0.58 | 0.08 | 93 | 1015.4 |
| 20260505164600 | 55 | 0 | 0.0 | 2.0 | 0.00 | 0.58 | 0.08 | 93 | 1015.5 |
| 20260505163059 | 54 | 360 | 0.0 | 2.0 | 0.00 | 0.58 | 0.08 | 94 | 1015.5 |
| 20260505161603 | 54 | 0 | 0.0 | 3.0 | 0.00 | 0.58 | 0.08 | 94 | 1015.4 |